Belle River, Canada
Current Conditions -  °F | °C
As of 6:00 AM on Monday 22 Dec 2014 (Local Time) from CYQG Reporting Station
Overcast Overcast  
Wind Chill: -10°   Ceiling: 24000
Heat Index: -5°   Visibility: 7mi
Dew Point: -6°   Wind: 7mph
Humidity: 93%   Direction: 60°ENE
Pressure: 30.11"   Gusts: NA
Location:  42.3°N, 82.72°W
Report Text: CYQG 221100Z 06006KT 7SM OVC240 M05/M06 A3011 RMK CI8 FROIN SLP205
Loading
Personal Weather Stations






























Interactive Weather Map New forecast layout! Learn more

10-Day Weather Forecast

Advertisements
Track Severe Weather on mobile